createdAt,value
2023-06-10T00:09:15.030Z,18.89
2023-06-10T00:19:37.826Z,18.67
2023-06-10T00:29:59.419Z,18.44
2023-06-10T00:40:21.039Z,18.37
2023-06-10T00:50:43.014Z,18.17
2023-06-10T01:01:05.201Z,18.00
2023-06-10T01:11:35.339Z,17.96
2023-06-10T01:21:56.981Z,17.71
2023-06-10T01:32:27.975Z,17.46
2023-06-10T01:42:49.540Z,17.30
2023-06-10T01:53:11.109Z,17.20
2023-06-10T02:03:32.752Z,17.09
2023-06-10T02:13:54.416Z,16.93
2023-06-10T02:24:16.141Z,16.79
2023-06-10T02:34:38.015Z,16.62
2023-06-10T02:44:59.971Z,16.51
2023-06-10T02:55:22.328Z,16.30
2023-06-10T03:05:43.920Z,16.23
2023-06-10T03:16:05.883Z,16.26
2023-06-10T03:26:28.453Z,16.14
2023-06-10T03:36:50.678Z,15.94
2023-06-10T03:47:13.991Z,15.99
2023-06-10T03:57:35.621Z,15.96
2023-06-10T04:07:57.996Z,16.00
2023-06-10T04:18:19.564Z,16.00
2023-06-10T04:28:41.019Z,15.89
2023-06-10T04:39:02.886Z,15.89
2023-06-10T04:49:24.431Z,15.88
2023-06-10T04:59:45.960Z,15.98
2023-06-10T05:10:08.153Z,16.01
2023-06-10T05:20:30.116Z,15.94
2023-06-10T05:30:51.811Z,16.03
2023-06-10T05:41:13.417Z,16.23
2023-06-10T05:51:34.864Z,16.11
2023-06-10T06:01:56.442Z,16.20
2023-06-10T06:12:18.074Z,16.25
2023-06-10T06:22:39.713Z,16.49
2023-06-10T06:33:01.385Z,16.64
2023-06-10T06:43:24.864Z,16.78
2023-06-10T06:53:46.755Z,16.64
2023-06-10T07:04:08.576Z,16.95
2023-06-10T07:14:30.390Z,17.14
2023-06-10T07:24:53.006Z,17.30
2023-06-10T07:35:15.030Z,16.97
2023-06-10T07:45:36.681Z,17.43
2023-06-10T07:55:58.258Z,17.94
2023-06-10T08:06:19.934Z,18.17
2023-06-10T08:16:42.395Z,18.57
2023-06-10T08:27:04.328Z,18.75
2023-06-10T08:37:25.940Z,18.93
2023-06-10T08:47:53.020Z,19.39
2023-06-10T08:58:15.067Z,19.72
2023-06-10T09:08:36.886Z,19.95
2023-06-10T09:18:59.917Z,20.23
2023-06-10T09:29:21.505Z,20.61
2023-06-10T09:39:43.308Z,20.94
2023-06-10T09:50:05.909Z,21.32
2023-06-10T10:00:28.527Z,21.74
2023-06-10T10:10:50.096Z,22.03
2023-06-10T10:21:17.150Z,22.30
2023-06-10T10:31:40.496Z,22.83
2023-06-10T10:42:04.856Z,23.17
2023-06-10T10:52:28.249Z,23.41
2023-06-10T11:02:54.611Z,23.99
2023-06-10T11:13:17.158Z,24.26
2023-06-10T11:23:43.053Z,24.61
2023-06-10T11:34:06.244Z,25.13
2023-06-10T11:44:29.951Z,25.27
2023-06-10T11:54:56.457Z,25.73
2023-06-10T12:05:20.455Z,25.75
2023-06-10T12:15:42.391Z,25.53
2023-06-10T12:26:03.990Z,25.06
2023-06-10T12:36:25.701Z,24.96
2023-06-10T12:46:55.442Z,24.74
2023-06-10T12:57:17.796Z,24.75
2023-06-10T13:07:39.925Z,24.86
2023-06-10T13:18:01.793Z,24.97
2023-06-10T13:28:23.393Z,25.09
2023-06-10T13:38:45.084Z,25.15
2023-06-10T13:49:06.669Z,25.24
2023-06-10T13:59:28.374Z,25.27
2023-06-10T14:09:49.935Z,25.41
2023-06-10T14:20:12.101Z,25.50
2023-06-10T14:30:33.692Z,25.65
2023-06-10T14:40:55.287Z,25.78
2023-06-10T14:51:16.887Z,25.84
2023-06-10T15:01:38.507Z,25.97
2023-06-10T15:12:04.477Z,26.07
2023-06-10T15:22:26.038Z,26.12
2023-06-10T15:32:47.628Z,26.15
2023-06-10T15:43:09.246Z,26.32
2023-06-10T15:53:30.860Z,26.48
2023-06-10T16:03:52.569Z,26.73
2023-06-10T16:14:14.918Z,27.33
2023-06-10T16:24:36.592Z,27.99
2023-06-10T16:34:58.270Z,28.40
2023-06-10T16:45:19.898Z,28.65
2023-06-10T16:55:45.357Z,28.71
2023-06-10T17:06:07.149Z,28.91
2023-06-10T17:16:28.839Z,28.82
2023-06-10T17:26:50.816Z,28.57
2023-06-10T17:37:12.377Z,28.47
2023-06-10T17:47:34.006Z,28.32
2023-06-10T17:57:56.043Z,28.19
2023-06-10T18:08:17.609Z,28.05
2023-06-10T18:18:39.212Z,27.90
2023-06-10T18:29:00.823Z,27.74
2023-06-10T18:39:22.432Z,27.55
2023-06-10T18:49:44.007Z,27.36
2023-06-10T19:00:06.643Z,27.25
2023-06-10T19:10:28.298Z,27.04
2023-06-10T19:20:49.926Z,26.79
2023-06-10T19:31:11.653Z,26.49
2023-06-10T19:41:33.789Z,26.18
2023-06-10T19:51:55.409Z,25.96
2023-06-10T20:02:17.026Z,25.62
2023-06-10T20:12:38.709Z,25.43
2023-06-10T20:23:00.301Z,25.23
2023-06-10T20:33:21.932Z,24.88
2023-06-10T20:43:44.023Z,24.71
2023-06-10T20:54:05.647Z,24.56
2023-06-10T21:04:27.229Z,24.42
2023-06-10T21:14:48.800Z,24.24
2023-06-10T21:25:10.953Z,24.08
2023-06-10T21:35:32.901Z,23.95
2023-06-10T21:45:57.222Z,23.78
2023-06-10T21:56:19.532Z,23.48
2023-06-10T22:06:41.130Z,23.28
2023-06-10T22:17:02.722Z,23.08
2023-06-10T22:27:24.975Z,23.01
2023-06-10T22:37:46.630Z,22.81
2023-06-10T22:48:08.290Z,22.64
2023-06-10T22:58:29.897Z,22.55
2023-06-10T23:08:51.502Z,22.42
2023-06-10T23:19:19.256Z,22.34
2023-06-10T23:29:52.203Z,22.20
2023-06-10T23:40:20.632Z,22.03
2023-06-10T23:50:42.728Z,21.92
